createdAt,value
2022-10-18T00:02:34.659Z,11.70
2022-10-18T00:07:36.243Z,13.30
2022-10-18T00:12:38.053Z,12.48
2022-10-18T00:17:40.085Z,13.32
2022-10-18T00:22:41.732Z,13.55
2022-10-18T00:27:43.179Z,14.05
2022-10-18T00:32:44.705Z,14.15
2022-10-18T00:37:46.196Z,12.05
2022-10-18T00:42:47.712Z,14.27
2022-10-18T00:47:57.332Z,15.35
2022-10-18T00:53:04.001Z,14.68
2022-10-18T00:58:06.139Z,15.70
2022-10-18T01:03:08.790Z,15.27
2022-10-18T01:08:12.923Z,13.95
2022-10-18T01:13:29.766Z,14.65
2022-10-18T01:18:53.587Z,13.98
2022-10-18T01:24:07.820Z,14.63
2022-10-18T01:29:33.621Z,15.15
2022-10-18T01:34:39.202Z,14.90
2022-10-18T01:39:45.110Z,14.02
2022-10-18T01:44:48.551Z,13.05
2022-10-18T01:50:00.442Z,15.52
2022-10-18T01:55:03.549Z,12.82
2022-10-18T02:00:14.017Z,13.27
2022-10-18T02:05:18.434Z,13.70
2022-10-18T02:15:35.751Z,14.93
2022-10-18T02:20:38.995Z,17.75
2022-10-18T02:25:40.640Z,18.13
2022-10-18T02:30:53.453Z,18.60
2022-10-18T02:36:03.516Z,20.52
2022-10-18T02:41:05.168Z,20.02
2022-10-18T02:46:06.751Z,21.48
2022-10-18T02:51:08.164Z,20.90
2022-10-18T02:56:09.660Z,21.10
2022-10-18T03:01:11.194Z,21.00
2022-10-18T03:06:12.725Z,20.15
2022-10-18T03:11:14.263Z,18.48
2022-10-18T03:16:15.946Z,16.90
2022-10-18T03:21:17.367Z,19.67
2022-10-18T03:26:18.824Z,22.20
2022-10-18T03:31:20.506Z,21.35
2022-10-18T03:36:22.007Z,22.42
2022-10-18T03:41:23.500Z,21.70
2022-10-18T03:46:25.005Z,23.83
2022-10-18T03:51:26.434Z,23.00
2022-10-18T03:56:27.871Z,24.98
2022-10-18T04:01:29.500Z,23.17
2022-10-18T04:06:31.154Z,24.52
2022-10-18T04:11:32.720Z,23.83
2022-10-18T04:16:34.197Z,22.83
2022-10-18T04:21:35.803Z,21.13
2022-10-18T04:26:37.520Z,21.08
2022-10-18T04:31:38.977Z,20.48
2022-10-18T04:36:40.457Z,19.63
2022-10-18T04:41:41.996Z,18.15
2022-10-18T04:46:43.408Z,18.92
2022-10-18T04:51:44.869Z,17.77
2022-10-18T04:56:46.495Z,17.70
2022-10-18T05:01:48.003Z,19.08
2022-10-18T05:06:49.571Z,18.50
2022-10-18T05:11:51.457Z,18.52
2022-10-18T05:16:53.047Z,19.08
2022-10-18T05:21:54.540Z,19.88
2022-10-18T05:26:55.985Z,20.20
2022-10-18T05:31:57.404Z,21.95
2022-10-18T05:36:59.961Z,21.77
2022-10-18T05:42:02.313Z,23.23
2022-10-18T05:47:03.816Z,21.38
2022-10-18T05:52:05.521Z,25.33
2022-10-18T05:57:07.104Z,27.05
2022-10-18T06:02:11.194Z,26.92
2022-10-18T06:07:12.784Z,25.00
2022-10-18T06:12:14.318Z,25.30
2022-10-18T06:17:15.784Z,26.27
2022-10-18T06:22:17.261Z,25.20
2022-10-18T06:27:18.767Z,27.38
2022-10-18T06:32:20.258Z,24.13
2022-10-18T06:37:21.686Z,23.40
2022-10-18T06:42:23.135Z,26.15
2022-10-18T06:47:24.565Z,25.55
2022-10-18T06:52:26.284Z,28.65
2022-10-18T06:57:27.776Z,24.38
2022-10-18T07:02:29.496Z,23.35
2022-10-18T07:07:31.999Z,23.27
2022-10-18T07:12:34.695Z,23.00
2022-10-18T07:17:36.237Z,20.33
2022-10-18T07:22:40.908Z,20.83
2022-10-18T07:27:43.343Z,19.33
2022-10-18T07:32:44.869Z,20.25
2022-10-18T07:37:46.505Z,17.73
2022-10-18T07:42:47.910Z,17.50
2022-10-18T07:47:55.109Z,18.10
2022-10-18T07:52:56.612Z,18.42
2022-10-18T07:58:00.282Z,18.60
2022-10-18T08:03:01.805Z,17.90
2022-10-18T08:08:05.745Z,16.85
2022-10-18T08:13:09.538Z,15.82
2022-10-18T08:18:11.181Z,17.50
2022-10-18T08:23:12.796Z,17.45
2022-10-18T08:28:14.238Z,16.38
2022-10-18T08:33:15.691Z,14.77
2022-10-18T08:38:18.828Z,16.05
2022-10-18T08:43:31.576Z,14.30
2022-10-18T08:48:41.094Z,11.68
2022-10-18T08:54:18.314Z,12.05
2022-10-18T08:59:23.283Z,10.05
2022-10-18T09:04:36.170Z,10.15
2022-10-18T09:09:55.917Z,7.93
2022-10-18T09:15:07.865Z,6.80
2022-10-18T09:20:17.634Z,5.95
2022-10-18T09:25:26.010Z,6.15
2022-10-18T09:30:45.561Z,5.82
2022-10-18T09:36:08.983Z,5.53
2022-10-18T09:41:24.668Z,4.82
2022-10-18T09:46:32.357Z,5.10
2022-10-18T09:51:37.004Z,4.68
2022-10-18T09:56:48.803Z,3.78
2022-10-18T10:01:50.385Z,4.70
2022-10-18T10:06:54.441Z,4.45
2022-10-18T10:11:57.420Z,3.58
2022-10-18T10:17:03.802Z,4.55
2022-10-18T10:22:14.252Z,2.95
2022-10-18T10:27:34.306Z,2.78
2022-10-18T10:32:47.842Z,2.50
2022-10-18T10:37:53.722Z,3.50
2022-10-18T10:43:13.012Z,3.60
2022-10-18T10:48:22.244Z,2.90
2022-10-18T10:53:29.700Z,2.80
2022-10-18T10:58:37.802Z,2.30
2022-10-18T11:03:46.814Z,2.08
2022-10-18T11:08:51.572Z,1.85
2022-10-18T11:14:25.664Z,2.00
2022-10-18T11:20:02.061Z,3.08
2022-10-18T11:25:05.362Z,2.50
2022-10-18T11:30:45.272Z,3.92
2022-10-18T11:36:04.595Z,2.42
2022-10-18T11:41:24.853Z,3.38
2022-10-18T11:46:47.769Z,2.47
2022-10-18T11:52:08.723Z,4.35
2022-10-18T11:57:16.588Z,2.03
2022-10-18T12:02:39.640Z,2.28
2022-10-18T12:07:55.474Z,2.42
2022-10-18T12:13:02.108Z,1.95
2022-10-18T12:18:10.312Z,1.88
2022-10-18T12:23:17.821Z,1.75
2022-10-18T12:28:54.276Z,1.92
2022-10-18T12:34:00.244Z,1.85
2022-10-18T12:39:06.764Z,2.60
2022-10-18T12:44:20.959Z,2.20
2022-10-18T12:49:31.994Z,1.75
2022-10-18T12:54:39.259Z,1.60
2022-10-18T12:59:41.383Z,1.80
2022-10-18T13:04:42.784Z,1.67
2022-10-18T13:10:15.277Z,2.10
2022-10-18T13:15:44.107Z,2.17
2022-10-18T13:21:23.452Z,1.88
2022-10-18T13:27:04.054Z,2.03
2022-10-18T13:32:45.277Z,2.35
2022-10-18T13:37:59.371Z,2.17
2022-10-18T13:48:31.254Z,2.50
2022-10-18T13:54:14.609Z,2.33
2022-10-18T14:05:25.078Z,1.90
2022-10-18T14:10:57.423Z,1.90
2022-10-18T14:16:37.497Z,2.35
2022-10-18T14:21:47.716Z,1.70
2022-10-18T14:27:11.245Z,1.80
2022-10-18T14:32:31.353Z,3.00
2022-10-18T14:37:36.729Z,1.80
2022-10-18T14:42:48.326Z,1.38
2022-10-18T14:47:49.857Z,1.92
2022-10-18T14:52:51.312Z,2.20
2022-10-18T14:57:52.773Z,2.00
2022-10-18T15:02:54.385Z,2.03
2022-10-18T15:07:59.604Z,1.92
2022-10-18T15:13:09.831Z,1.10
2022-10-18T15:18:22.015Z,1.70
2022-10-18T15:23:32.327Z,1.65
2022-10-18T15:28:49.486Z,2.50
2022-10-18T15:33:51.879Z,1.80
2022-10-18T15:38:53.756Z,1.52
2022-10-18T15:44:17.986Z,2.20
2022-10-18T15:49:44.261Z,1.65
2022-10-18T15:54:45.883Z,1.35
2022-10-18T16:00:18.121Z,1.92
2022-10-18T16:05:20.826Z,1.85
2022-10-18T16:10:22.377Z,1.55
2022-10-18T16:15:24.033Z,1.48
2022-10-18T16:20:26.762Z,1.33
2022-10-18T16:25:28.209Z,1.77
2022-10-18T16:30:32.488Z,1.77
2022-10-18T16:35:35.517Z,1.10
2022-10-18T16:40:40.367Z,1.75
2022-10-18T16:45:43.031Z,2.05
2022-10-18T16:50:44.780Z,2.03
2022-10-18T16:55:46.282Z,1.85
2022-10-18T17:00:48.068Z,2.78
2022-10-18T17:05:49.547Z,1.27
2022-10-18T17:10:54.010Z,1.70
2022-10-18T17:21:00.613Z,2.67
2022-10-18T17:26:05.565Z,2.20
2022-10-18T17:31:16.719Z,2.00
2022-10-18T17:36:18.216Z,2.33
2022-10-18T17:41:20.274Z,1.70
2022-10-18T17:46:23.487Z,2.42
2022-10-18T17:51:25.016Z,1.55
2022-10-18T17:56:31.043Z,2.42
2022-10-18T18:01:32.839Z,1.77
2022-10-18T18:06:38.946Z,2.08
2022-10-18T18:11:43.722Z,2.15
2022-10-18T18:16:47.222Z,1.73
2022-10-18T18:21:49.173Z,0.93
2022-10-18T18:26:52.862Z,1.23
2022-10-18T18:31:54.302Z,0.67
2022-10-18T18:36:55.764Z,0.88
2022-10-18T18:41:57.188Z,0.93
2022-10-18T18:46:58.917Z,0.70
2022-10-18T18:52:00.425Z,1.70
2022-10-18T18:57:05.200Z,1.60
2022-10-18T19:02:06.698Z,2.08
2022-10-18T19:07:08.307Z,1.10
2022-10-18T19:12:09.938Z,1.30
2022-10-18T19:17:11.361Z,1.77
2022-10-18T19:22:12.817Z,1.30
2022-10-18T19:27:14.274Z,0.80
2022-10-18T19:32:18.505Z,1.30
2022-10-18T19:37:20.116Z,1.83
2022-10-18T19:42:24.220Z,1.33
2022-10-18T19:47:27.584Z,0.90
2022-10-18T19:52:29.053Z,1.83
2022-10-18T19:57:30.572Z,1.25
2022-10-18T20:02:32.309Z,0.95
2022-10-18T20:07:34.726Z,0.70
2022-10-18T20:12:36.488Z,1.10
2022-10-18T20:17:37.997Z,0.80
2022-10-18T20:22:39.532Z,0.90
2022-10-18T20:27:41.017Z,1.13
2022-10-18T20:32:42.708Z,0.80
2022-10-18T20:37:44.208Z,1.15
2022-10-18T20:42:45.670Z,0.95
2022-10-18T20:47:47.169Z,0.77
2022-10-18T20:52:51.170Z,0.82
2022-10-18T20:57:52.607Z,1.05
2022-10-18T21:02:58.010Z,0.95
2022-10-18T21:07:59.469Z,1.25
2022-10-18T21:13:00.977Z,1.05
2022-10-18T21:18:02.408Z,1.58
2022-10-18T21:23:04.350Z,1.35
2022-10-18T21:28:05.765Z,0.85
2022-10-18T21:33:07.981Z,1.45
2022-10-18T21:38:09.498Z,1.27
2022-10-18T21:43:11.780Z,1.20
2022-10-18T21:48:13.282Z,1.20
2022-10-18T21:53:16.531Z,1.30
2022-10-18T21:58:18.103Z,0.90
2022-10-18T22:03:23.192Z,1.10
2022-10-18T22:08:24.736Z,0.90
2022-10-18T22:13:27.401Z,1.52
2022-10-18T22:18:29.175Z,1.42
2022-10-18T22:23:32.905Z,1.52
2022-10-18T22:28:35.368Z,1.40
2022-10-18T22:38:43.238Z,1.27
2022-10-18T22:43:45.355Z,0.80
2022-10-18T22:48:47.336Z,0.98
2022-10-18T22:53:49.194Z,1.10
2022-10-18T22:58:50.897Z,1.20
2022-10-18T23:03:58.105Z,1.35
2022-10-18T23:09:04.777Z,1.10
2022-10-18T23:14:07.399Z,0.60
2022-10-18T23:19:14.876Z,0.82
2022-10-18T23:24:16.374Z,0.98
2022-10-18T23:29:17.855Z,0.77
2022-10-18T23:34:19.352Z,1.50
2022-10-18T23:39:20.959Z,0.70
2022-10-18T23:44:22.383Z,0.90
2022-10-18T23:49:23.824Z,1.42
2022-10-18T23:54:25.243Z,1.15
2022-10-18T23:59:27.328Z,0.82
